createdAt,value
2022-08-11T00:00:09.830Z,20.50
2022-08-11T00:02:45.060Z,20.40
2022-08-11T00:05:13.785Z,20.40
2022-08-11T00:07:46.226Z,20.40
2022-08-11T00:10:16.750Z,20.30
2022-08-11T00:12:50.185Z,20.30
2022-08-11T00:15:17.373Z,20.20
2022-08-11T00:17:44.677Z,20.20
2022-08-11T00:20:16.873Z,20.20
2022-08-11T00:22:47.013Z,20.30
2022-08-11T00:25:22.045Z,20.20
2022-08-11T00:27:49.222Z,20.10
2022-08-11T00:30:16.902Z,20.10
2022-08-11T00:32:55.974Z,20.10
2022-08-11T00:35:50.908Z,20.00
2022-08-11T00:38:16.657Z,20.00
2022-08-11T00:40:52.106Z,19.90
2022-08-11T00:43:29.827Z,19.90
2022-08-11T00:46:14.698Z,19.80
2022-08-11T00:49:05.970Z,19.80
2022-08-11T00:52:02.348Z,19.80
2022-08-11T00:54:52.183Z,19.80
2022-08-11T00:57:45.113Z,19.70
2022-08-11T01:00:18.832Z,19.60
2022-08-11T01:02:48.482Z,19.50
2022-08-11T01:05:45.127Z,19.50
2022-08-11T01:08:33.356Z,19.50
2022-08-11T01:11:55.162Z,19.50
2022-08-11T01:14:56.094Z,19.40
2022-08-11T01:17:56.583Z,19.30
2022-08-11T01:21:00.950Z,19.30
2022-08-11T01:24:04.869Z,19.30
2022-08-11T01:27:18.894Z,19.20
2022-08-11T01:30:20.623Z,19.20
2022-08-11T01:33:38.739Z,19.10
2022-08-11T01:36:31.296Z,19.10
2022-08-11T01:39:39.499Z,19.10
2022-08-11T01:42:59.846Z,19.00
2022-08-11T01:45:48.394Z,19.00
2022-08-11T01:48:27.399Z,18.90
2022-08-11T01:51:34.513Z,19.00
2022-08-11T01:54:23.393Z,18.90
2022-08-11T01:56:56.950Z,18.90
2022-08-11T01:59:34.869Z,18.90
2022-08-11T02:02:44.672Z,18.90
2022-08-11T02:05:50.155Z,18.90
2022-08-11T02:08:33.805Z,18.80
2022-08-11T02:11:31.590Z,18.80
2022-08-11T02:14:24.050Z,18.80
2022-08-11T02:17:15.005Z,18.80
2022-08-11T02:20:16.083Z,18.80
2022-08-11T02:23:25.053Z,18.70
2022-08-11T02:26:25.486Z,18.70
2022-08-11T02:29:50.317Z,18.70
2022-08-11T02:32:38.370Z,18.70
2022-08-11T02:35:36.717Z,18.60
2022-08-11T02:38:16.368Z,18.60
2022-08-11T02:41:36.347Z,18.60
2022-08-11T02:44:08.755Z,18.60
2022-08-11T02:46:56.930Z,18.60
2022-08-11T02:50:07.180Z,18.60
2022-08-11T02:52:38.028Z,18.60
2022-08-11T02:55:47.941Z,18.50
2022-08-11T02:58:19.928Z,18.50
2022-08-11T03:01:22.099Z,18.50
2022-08-11T03:04:05.371Z,18.50
2022-08-11T03:06:41.434Z,18.40
2022-08-11T03:09:24.518Z,18.40
2022-08-11T03:12:23.217Z,18.40
2022-08-11T03:15:15.311Z,18.40
2022-08-11T03:17:54.115Z,18.40
2022-08-11T03:20:24.146Z,18.30
2022-08-11T03:23:19.741Z,18.30
2022-08-11T03:26:06.786Z,18.30
2022-08-11T03:28:51.804Z,18.20
2022-08-11T03:31:26.594Z,18.20
2022-08-11T03:34:11.245Z,18.20
2022-08-11T03:37:16.982Z,18.20
2022-08-11T03:39:56.595Z,18.10
2022-08-11T03:42:42.207Z,18.00
2022-08-11T03:45:11.663Z,18.10
2022-08-11T03:48:01.192Z,18.10
2022-08-11T03:51:02.702Z,18.10
2022-08-11T03:53:53.492Z,18.10
2022-08-11T03:56:56.514Z,18.10
2022-08-11T03:59:41.290Z,18.00
2022-08-11T04:02:49.094Z,18.00
2022-08-11T04:05:45.504Z,18.00
2022-08-11T04:08:34.154Z,18.00
2022-08-11T04:11:22.394Z,17.90
2022-08-11T04:14:36.048Z,17.90
2022-08-11T04:17:44.311Z,17.90
2022-08-11T04:20:35.871Z,17.90
2022-08-11T04:24:35.359Z,17.90
2022-08-11T04:26:56.046Z,17.90
2022-08-11T04:30:01.011Z,17.90
2022-08-11T04:32:54.643Z,17.90
2022-08-11T04:35:51.334Z,17.90
2022-08-11T04:39:05.747Z,17.80
2022-08-11T04:42:13.966Z,17.90
2022-08-11T04:45:01.440Z,17.90
2022-08-11T04:48:09.997Z,17.90
2022-08-11T04:51:19.472Z,17.90
2022-08-11T04:54:11.006Z,17.90
2022-08-11T04:57:02.162Z,17.90
2022-08-11T05:00:01.725Z,18.00
2022-08-11T05:02:46.825Z,18.00
2022-08-11T05:05:31.505Z,18.00
2022-08-11T05:08:28.167Z,18.00
2022-08-11T05:11:25.027Z,18.00
2022-08-11T05:14:18.569Z,18.10
2022-08-11T05:17:17.750Z,18.10
2022-08-11T05:20:07.075Z,18.20
2022-08-11T05:22:53.652Z,18.20
2022-08-11T05:26:44.461Z,18.20
2022-08-11T05:29:20.090Z,18.30
2022-08-11T05:32:15.455Z,18.30
2022-08-11T05:34:54.062Z,18.40
2022-08-11T05:37:30.081Z,18.40
2022-08-11T05:40:24.215Z,18.50
2022-08-11T05:43:15.049Z,18.50
2022-08-11T05:46:03.451Z,18.50
2022-08-11T05:48:54.912Z,18.50
2022-08-11T05:51:52.449Z,18.60
2022-08-11T05:54:42.958Z,18.70
2022-08-11T05:57:49.540Z,18.70
2022-08-11T06:00:14.642Z,18.70
2022-08-11T06:02:51.008Z,18.70
2022-08-11T06:05:19.418Z,18.80
2022-08-11T06:07:49.441Z,18.80
2022-08-11T06:10:36.125Z,18.90
2022-08-11T06:13:04.952Z,18.90
2022-08-11T06:15:43.405Z,19.00
2022-08-11T06:18:12.275Z,19.00
2022-08-11T06:20:54.796Z,19.00
2022-08-11T06:23:23.571Z,19.10
2022-08-11T06:25:56.397Z,19.10
2022-08-11T06:28:34.318Z,19.10
2022-08-11T06:31:03.356Z,19.20
2022-08-11T06:33:35.065Z,19.30
2022-08-11T06:36:15.011Z,19.40
2022-08-11T06:39:02.286Z,19.50
2022-08-11T06:41:51.924Z,19.90
2022-08-11T06:44:32.362Z,20.60
2022-08-11T06:47:07.653Z,21.40
2022-08-11T06:49:55.460Z,21.70
2022-08-11T06:52:35.117Z,21.80
2022-08-11T06:55:58.039Z,21.80
2022-08-11T06:58:49.723Z,21.60
2022-08-11T07:01:47.713Z,21.40
2022-08-11T07:04:29.184Z,21.30
2022-08-11T07:08:34.902Z,21.10
2022-08-11T07:11:48.302Z,21.00
2022-08-11T07:14:43.373Z,20.90
2022-08-11T07:17:15.417Z,20.80
2022-08-11T07:20:06.127Z,20.90
2022-08-11T07:23:10.043Z,20.90
2022-08-11T07:26:00.006Z,21.00
2022-08-11T07:28:48.168Z,20.90
2022-08-11T07:31:21.540Z,20.90
2022-08-11T07:34:07.191Z,21.00
2022-08-11T07:36:42.729Z,21.00
2022-08-11T07:39:24.573Z,21.10
2022-08-11T07:41:54.151Z,21.10
2022-08-11T07:44:22.399Z,21.20
2022-08-11T07:47:09.797Z,21.30
2022-08-11T07:49:57.044Z,21.40
2022-08-11T07:52:32.209Z,21.40
2022-08-11T07:55:08.401Z,21.50
2022-08-11T07:58:15.849Z,21.50
2022-08-11T08:01:10.414Z,21.60
2022-08-11T08:04:07.869Z,21.70
2022-08-11T08:06:54.267Z,21.90
2022-08-11T08:09:41.223Z,21.90
2022-08-11T08:12:27.478Z,22.30
2022-08-11T08:15:14.031Z,22.70
2022-08-11T08:18:09.376Z,23.00
2022-08-11T08:20:40.141Z,23.00
2022-08-11T08:23:07.771Z,23.10
2022-08-11T08:25:40.447Z,23.20
2022-08-11T08:28:14.745Z,23.20
2022-08-11T08:30:51.077Z,23.20
2022-08-11T08:33:24.808Z,23.10
2022-08-11T08:36:11.413Z,23.30
2022-08-11T08:38:42.690Z,23.30
2022-08-11T08:41:16.393Z,23.80
2022-08-11T08:43:47.568Z,24.90
2022-08-11T08:46:20.357Z,26.10
2022-08-11T08:48:48.902Z,27.20
2022-08-11T08:51:58.783Z,28.10
2022-08-11T08:54:28.866Z,28.90
2022-08-11T08:56:56.765Z,29.60
2022-08-11T08:59:47.617Z,30.30
2022-08-11T09:02:14.451Z,30.70
2022-08-11T09:04:45.447Z,31.10
2022-08-11T09:07:16.098Z,31.40
2022-08-11T09:09:54.557Z,31.60
2022-08-11T09:12:35.898Z,31.50
2022-08-11T09:15:07.981Z,31.60
2022-08-11T09:18:03.429Z,31.50
2022-08-11T09:20:34.136Z,31.80
2022-08-11T09:24:08.771Z,32.10
2022-08-11T09:26:32.855Z,31.90
2022-08-11T09:29:00.416Z,31.80
2022-08-11T09:31:33.512Z,31.90
2022-08-11T09:34:03.653Z,31.80
2022-08-11T09:36:49.845Z,32.00
2022-08-11T09:39:36.412Z,32.00
2022-08-11T09:42:04.569Z,32.10
2022-08-11T09:44:49.515Z,32.10
2022-08-11T09:47:21.498Z,32.10
2022-08-11T09:49:49.287Z,32.10
2022-08-11T09:52:18.421Z,32.30
2022-08-11T09:54:48.542Z,32.30
2022-08-11T09:57:38.354Z,32.40
2022-08-11T10:00:12.243Z,32.70
2022-08-11T10:02:54.482Z,32.90
2022-08-11T10:05:40.429Z,33.00
2022-08-11T10:08:11.921Z,33.20
2022-08-11T10:10:41.094Z,33.30
2022-08-11T10:14:03.745Z,33.00
2022-08-11T10:16:16.292Z,33.00
2022-08-11T10:18:52.103Z,32.70
2022-08-11T10:21:39.071Z,32.80
2022-08-11T10:24:25.858Z,32.60
2022-08-11T10:26:54.766Z,32.70
2022-08-11T10:29:45.237Z,32.70
2022-08-11T10:32:57.435Z,32.80
2022-08-11T10:35:28.008Z,32.80
2022-08-11T10:38:07.890Z,32.70
2022-08-11T10:40:39.406Z,33.10
2022-08-11T10:43:10.406Z,33.20
2022-08-11T10:45:58.150Z,33.20
2022-08-11T10:48:27.731Z,33.10
2022-08-11T10:51:14.480Z,32.70
2022-08-11T10:54:11.510Z,32.60
2022-08-11T10:56:58.476Z,32.20
2022-08-11T10:59:28.403Z,32.30
2022-08-11T11:01:56.165Z,32.30
2022-08-11T11:04:50.964Z,32.40
2022-08-11T11:07:24.070Z,32.40
2022-08-11T11:09:56.065Z,32.80
2022-08-11T11:12:56.480Z,32.70
2022-08-11T11:15:43.157Z,32.50
2022-08-11T11:18:22.550Z,32.50
2022-08-11T11:20:57.412Z,32.40
2022-08-11T11:23:47.306Z,32.30
2022-08-11T11:26:38.570Z,32.20
2022-08-11T11:29:20.853Z,32.40
2022-08-11T11:31:59.045Z,32.50
2022-08-11T11:35:02.914Z,32.70
2022-08-11T11:37:35.609Z,32.90
2022-08-11T11:40:10.275Z,33.00
2022-08-11T11:42:37.938Z,33.10
2022-08-11T11:45:06.738Z,32.80
2022-08-11T11:47:35.782Z,32.90
2022-08-11T11:50:03.506Z,32.80
2022-08-11T11:52:30.750Z,32.80
2022-08-11T11:54:58.480Z,32.90
2022-08-11T11:57:59.329Z,33.00
2022-08-11T12:00:48.641Z,32.90
2022-08-11T12:03:15.903Z,33.10
2022-08-11T12:05:44.767Z,33.40
2022-08-11T12:08:16.117Z,33.30
2022-08-11T12:11:15.505Z,32.90
2022-08-11T12:13:45.772Z,33.30
2022-08-11T12:16:34.852Z,33.30
2022-08-11T12:19:05.277Z,33.30
2022-08-11T12:21:34.294Z,33.50
2022-08-11T12:24:21.489Z,33.50
2022-08-11T12:27:16.113Z,33.50
2022-08-11T12:29:36.385Z,33.60
2022-08-11T12:32:08.913Z,33.50
2022-08-11T12:34:36.487Z,33.50
2022-08-11T12:37:05.754Z,33.50
2022-08-11T12:40:17.262Z,33.40
2022-08-11T12:43:03.976Z,33.40
2022-08-11T12:45:39.074Z,33.40
2022-08-11T12:48:58.776Z,33.60
2022-08-11T12:52:12.417Z,33.70
2022-08-11T12:55:03.299Z,33.60
2022-08-11T12:57:58.386Z,33.40
2022-08-11T13:00:46.476Z,33.40
2022-08-11T13:03:33.151Z,33.00
2022-08-11T13:06:02.542Z,33.00
2022-08-11T13:08:35.381Z,32.80
2022-08-11T13:11:21.872Z,32.80
2022-08-11T13:13:54.990Z,32.80
2022-08-11T13:16:27.952Z,32.80
2022-08-11T13:18:55.603Z,32.90
2022-08-11T13:21:23.326Z,32.80
2022-08-11T13:24:00.264Z,32.80
2022-08-11T13:26:46.818Z,32.90
2022-08-11T13:29:20.003Z,32.80
2022-08-11T13:31:47.963Z,32.80
2022-08-11T13:34:16.585Z,32.60
2022-08-11T13:36:44.521Z,32.60
2022-08-11T13:39:12.435Z,32.60
2022-08-11T13:41:43.923Z,32.60
2022-08-11T13:44:15.553Z,32.80
2022-08-11T13:46:44.727Z,32.70
2022-08-11T13:49:15.291Z,32.70
2022-08-11T13:51:42.189Z,32.70
2022-08-11T13:54:10.294Z,32.60
2022-08-11T13:56:39.918Z,32.60
2022-08-11T13:59:09.086Z,32.80
2022-08-11T14:02:19.795Z,32.80
2022-08-11T14:04:52.674Z,32.80
2022-08-11T14:07:22.793Z,32.90
2022-08-11T14:09:56.536Z,32.80
2022-08-11T14:12:44.992Z,32.80
2022-08-11T14:15:19.837Z,32.60
2022-08-11T14:17:52.176Z,32.70
2022-08-11T14:20:39.266Z,32.70
2022-08-11T14:23:10.783Z,32.70
2022-08-11T14:26:01.866Z,32.70
2022-08-11T14:28:36.194Z,32.60
2022-08-11T14:31:08.458Z,32.60
2022-08-11T14:33:58.222Z,32.60
2022-08-11T14:36:26.373Z,32.70
2022-08-11T14:38:54.578Z,32.70
2022-08-11T14:42:10.009Z,32.70
2022-08-11T14:44:48.800Z,32.70
2022-08-11T14:47:23.901Z,32.60
2022-08-11T14:49:59.479Z,32.60
2022-08-11T14:52:38.266Z,32.60
2022-08-11T14:55:24.595Z,32.60
2022-08-11T14:57:55.541Z,32.50
2022-08-11T15:00:24.102Z,32.40
2022-08-11T15:03:09.934Z,32.30
2022-08-11T15:05:56.217Z,32.20
2022-08-11T15:08:46.888Z,32.10
2022-08-11T15:11:34.058Z,32.00
2022-08-11T15:14:05.570Z,32.00
2022-08-11T15:16:51.503Z,32.00
2022-08-11T15:19:21.283Z,31.90
2022-08-11T15:22:07.756Z,31.80
2022-08-11T15:24:36.389Z,31.90
2022-08-11T15:27:31.217Z,31.90
2022-08-11T15:30:34.731Z,31.90
2022-08-11T15:33:28.218Z,31.80
2022-08-11T15:36:15.053Z,31.70
2022-08-11T15:38:55.371Z,31.70
2022-08-11T15:41:58.464Z,31.70
2022-08-11T15:45:02.599Z,31.50
2022-08-11T15:47:37.676Z,31.60
2022-08-11T15:50:11.213Z,31.50
2022-08-11T15:52:56.021Z,31.50
2022-08-11T15:55:24.550Z,31.50
2022-08-11T15:58:13.136Z,31.40
2022-08-11T16:01:04.159Z,31.50
2022-08-11T16:04:09.089Z,31.30
2022-08-11T16:06:50.034Z,31.20
2022-08-11T16:09:52.761Z,31.20
2022-08-11T16:12:28.907Z,31.20
2022-08-11T16:15:21.125Z,31.20
2022-08-11T16:17:54.042Z,31.10
2022-08-11T16:20:24.502Z,31.10
2022-08-11T16:22:57.219Z,31.10
2022-08-11T16:27:04.996Z,30.90
2022-08-11T16:28:18.675Z,30.90
2022-08-11T16:30:46.523Z,30.90
2022-08-11T16:33:48.622Z,30.90
2022-08-11T16:36:22.784Z,30.80
2022-08-11T16:38:49.992Z,30.70
2022-08-11T16:41:41.849Z,30.70
2022-08-11T16:44:50.132Z,30.60
2022-08-11T16:48:03.571Z,30.60
2022-08-11T16:50:07.507Z,30.50
2022-08-11T16:52:34.676Z,30.50
2022-08-11T16:55:03.711Z,30.50
2022-08-11T16:57:52.289Z,30.40
2022-08-11T17:00:19.257Z,30.30
2022-08-11T17:03:12.640Z,30.30
2022-08-11T17:06:05.485Z,30.20
2022-08-11T17:09:06.036Z,30.20
2022-08-11T17:11:59.355Z,30.20
2022-08-11T17:14:36.444Z,30.10
2022-08-11T17:17:07.075Z,30.00
2022-08-11T17:20:43.556Z,30.00
2022-08-11T17:22:42.414Z,30.00
2022-08-11T17:25:09.983Z,29.90
2022-08-11T17:27:38.967Z,29.80
2022-08-11T17:30:08.337Z,29.70
2022-08-11T17:33:01.352Z,29.80
2022-08-11T17:35:38.470Z,29.70
2022-08-11T17:38:10.647Z,29.70
2022-08-11T17:41:00.861Z,29.60
2022-08-11T17:43:47.505Z,29.60
2022-08-11T17:46:34.506Z,29.50
2022-08-11T17:49:02.686Z,29.50
2022-08-11T17:51:48.545Z,29.50
2022-08-11T17:54:34.570Z,29.40
2022-08-11T17:57:21.326Z,29.40
2022-08-11T17:59:53.086Z,29.30
2022-08-11T18:02:46.861Z,29.20
2022-08-11T18:05:15.346Z,29.20
2022-08-11T18:08:01.930Z,29.10
2022-08-11T18:10:49.279Z,29.10
2022-08-11T18:13:37.258Z,29.00
2022-08-11T18:16:22.705Z,29.00
2022-08-11T18:19:08.110Z,28.90
2022-08-11T18:22:13.097Z,28.80
2022-08-11T18:25:05.983Z,28.70
2022-08-11T18:27:53.286Z,28.70
2022-08-11T18:30:38.766Z,28.60
2022-08-11T18:33:50.685Z,28.60
2022-08-11T18:36:37.223Z,28.40
2022-08-11T18:39:28.104Z,28.40
2022-08-11T18:42:29.308Z,28.30
2022-08-11T18:45:18.740Z,28.20
2022-08-11T18:48:07.110Z,28.00
2022-08-11T18:51:30.411Z,28.10
2022-08-11T18:54:10.154Z,27.90
2022-08-11T18:56:56.004Z,27.80
2022-08-11T18:59:46.118Z,27.80
2022-08-11T19:02:49.365Z,27.70
2022-08-11T19:06:06.088Z,27.60
2022-08-11T19:08:48.676Z,27.40
2022-08-11T19:11:34.111Z,27.40
2022-08-11T19:14:20.993Z,27.30
2022-08-11T19:17:08.141Z,27.20
2022-08-11T19:19:55.574Z,27.10
2022-08-11T19:22:42.948Z,27.00
2022-08-11T19:25:29.952Z,26.90
2022-08-11T19:28:16.298Z,26.80
2022-08-11T19:31:02.281Z,26.80
2022-08-11T19:34:02.836Z,26.70
2022-08-11T19:36:56.740Z,26.60
2022-08-11T19:39:43.784Z,26.50
2022-08-11T19:42:30.108Z,26.50
2022-08-11T19:45:17.550Z,26.40
2022-08-11T19:48:30.011Z,26.40
2022-08-11T19:51:11.007Z,26.30
2022-08-11T19:53:56.926Z,26.30
2022-08-11T19:56:42.968Z,26.20
2022-08-11T19:59:29.308Z,26.10
2022-08-11T20:02:15.031Z,26.00
2022-08-11T20:05:01.310Z,25.90
2022-08-11T20:07:47.509Z,25.80
2022-08-11T20:10:36.431Z,25.80
2022-08-11T20:13:22.007Z,25.80
2022-08-11T20:16:07.590Z,25.70
2022-08-11T20:18:54.227Z,25.60
2022-08-11T20:21:41.316Z,25.50
2022-08-11T20:24:27.424Z,25.50
2022-08-11T20:27:18.548Z,25.40
2022-08-11T20:30:09.558Z,25.30
2022-08-11T20:32:55.680Z,25.30
2022-08-11T20:35:42.157Z,25.20
2022-08-11T20:38:28.671Z,25.20
2022-08-11T20:41:16.303Z,25.10
2022-08-11T20:44:05.480Z,25.10
2022-08-11T20:46:57.333Z,25.00
2022-08-11T20:49:53.754Z,25.00
2022-08-11T20:52:47.999Z,24.90
2022-08-11T20:55:51.775Z,24.90
2022-08-11T21:01:46.630Z,24.70
2022-08-11T21:04:34.949Z,24.60
2022-08-11T21:07:29.111Z,24.60
2022-08-11T21:10:23.744Z,24.50
2022-08-11T21:13:25.517Z,24.50
2022-08-11T21:16:15.926Z,24.30
2022-08-11T21:19:55.184Z,24.40
2022-08-11T21:22:39.956Z,24.30
2022-08-11T21:25:46.667Z,24.30
2022-08-11T21:28:34.572Z,24.20
2022-08-11T21:31:23.011Z,24.10
2022-08-11T21:34:09.125Z,24.10
2022-08-11T21:36:54.880Z,24.10
2022-08-11T21:39:41.752Z,24.10
2022-08-11T21:42:29.254Z,24.00
2022-08-11T21:45:16.879Z,24.00
2022-08-11T21:48:02.958Z,23.90
2022-08-11T21:50:48.502Z,23.90
2022-08-11T21:53:33.866Z,23.80
2022-08-11T21:56:20.446Z,23.80
2022-08-11T21:59:07.976Z,23.70
2022-08-11T22:01:53.887Z,23.70
2022-08-11T22:04:39.807Z,23.60
2022-08-11T22:07:26.405Z,23.60
2022-08-11T22:10:27.622Z,23.50
2022-08-11T22:13:17.166Z,23.50
2022-08-11T22:16:02.560Z,23.50
2022-08-11T22:18:48.439Z,23.40
2022-08-11T22:22:01.233Z,23.40
2022-08-11T22:24:41.923Z,23.40
2022-08-11T22:27:28.785Z,23.40
2022-08-11T22:30:14.293Z,23.30
2022-08-11T22:32:59.910Z,23.20
2022-08-11T22:35:45.316Z,23.10
2022-08-11T22:38:30.957Z,23.10
2022-08-11T22:41:16.368Z,23.00
2022-08-11T22:44:01.642Z,23.00
2022-08-11T22:46:49.263Z,22.90
2022-08-11T22:49:42.643Z,22.90
2022-08-11T22:52:42.112Z,22.80
2022-08-11T22:55:27.873Z,22.80
2022-08-11T22:58:14.450Z,22.80
2022-08-11T23:01:00.407Z,22.80
2022-08-11T23:03:45.882Z,22.80
2022-08-11T23:06:32.930Z,22.60
2022-08-11T23:09:20.885Z,22.70
2022-08-11T23:12:10.461Z,22.60
2022-08-11T23:14:57.766Z,22.60
2022-08-11T23:17:43.793Z,22.50
2022-08-11T23:20:35.043Z,22.50
2022-08-11T23:23:28.530Z,22.40
2022-08-11T23:26:14.554Z,22.40
2022-08-11T23:29:05.023Z,22.40
2022-08-11T23:31:53.578Z,22.40
2022-08-11T23:35:04.044Z,22.30
2022-08-11T23:37:49.137Z,22.20
2022-08-11T23:40:34.077Z,22.20
2022-08-11T23:43:19.708Z,22.10
2022-08-11T23:46:05.172Z,22.00
2022-08-11T23:48:51.237Z,22.00
2022-08-11T23:51:40.440Z,22.00
2022-08-11T23:54:28.327Z,22.00
2022-08-11T23:57:13.965Z,22.00
2022-08-11T23:59:59.095Z,21.90
